createdAt,value
2019-01-25T00:00:29.445Z,103.57
2019-01-25T00:02:57.954Z,104.57
2019-01-25T00:05:26.532Z,102.07
2019-01-25T00:07:54.898Z,112.10
2019-01-25T00:10:23.331Z,86.03
2019-01-25T00:12:51.761Z,100.10
2019-01-25T00:15:20.416Z,90.77
2019-01-25T00:17:48.946Z,73.90
2019-01-25T00:20:17.624Z,84.50
2019-01-25T00:22:45.969Z,90.53
2019-01-25T00:25:14.516Z,96.77
2019-01-25T00:27:42.979Z,95.03
2019-01-25T00:30:16.784Z,98.03
2019-01-25T00:32:45.329Z,106.87
2019-01-25T00:35:13.762Z,91.97
2019-01-25T00:37:42.177Z,82.23
2019-01-25T00:40:13.778Z,81.37
2019-01-25T00:42:42.252Z,101.17
2019-01-25T00:45:11.762Z,106.63
2019-01-25T00:47:40.299Z,90.87
2019-01-25T00:50:18.004Z,95.47
2019-01-25T00:52:46.475Z,89.50
2019-01-25T00:55:14.915Z,91.30
2019-01-25T00:57:43.315Z,98.80
2019-01-25T01:00:26.215Z,92.93
2019-01-25T01:02:54.571Z,119.03
2019-01-25T01:05:22.989Z,91.67
2019-01-25T01:07:51.861Z,101.53
2019-01-25T01:10:21.240Z,92.00
2019-01-25T01:12:49.637Z,89.27
2019-01-25T01:15:19.217Z,98.63
2019-01-25T01:17:47.734Z,94.60
2019-01-25T01:20:19.191Z,79.80
2019-01-25T01:22:47.825Z,98.37
2019-01-25T01:25:17.281Z,79.33
2019-01-25T01:27:45.707Z,78.93
2019-01-25T01:30:22.260Z,105.47
2019-01-25T01:32:50.849Z,75.73
2019-01-25T01:35:19.408Z,93.30
2019-01-25T01:37:48.129Z,87.23
2019-01-25T01:40:22.294Z,92.90
2019-01-25T01:42:50.855Z,93.47
2019-01-25T01:45:19.312Z,115.50
2019-01-25T01:47:47.727Z,100.00
2019-01-25T01:50:18.417Z,88.63
2019-01-25T01:52:48.860Z,64.50
2019-01-25T01:55:17.302Z,115.37
2019-01-25T01:57:45.656Z,118.93
2019-01-25T02:00:17.529Z,81.10
2019-01-25T02:02:45.998Z,101.80
2019-01-25T02:05:14.409Z,104.60
2019-01-25T02:07:42.703Z,90.17
2019-01-25T02:10:34.730Z,86.70
2019-01-25T02:13:03.139Z,85.13
2019-01-25T02:15:31.740Z,95.60
2019-01-25T02:18:00.151Z,81.00
2019-01-25T02:20:29.663Z,115.13
2019-01-25T02:22:58.162Z,107.47
2019-01-25T02:25:26.668Z,83.87
2019-01-25T02:27:55.085Z,96.70
2019-01-25T02:30:25.649Z,95.37
2019-01-25T02:32:54.134Z,103.13
2019-01-25T02:35:22.481Z,102.00
2019-01-25T02:37:50.926Z,101.90
2019-01-25T02:40:21.625Z,101.10
2019-01-25T02:42:49.997Z,106.57
2019-01-25T02:45:18.273Z,88.77
2019-01-25T02:47:46.887Z,93.90
2019-01-25T02:50:17.784Z,82.30
2019-01-25T02:52:46.165Z,68.37
2019-01-25T02:55:16.815Z,81.57
2019-01-25T02:57:45.408Z,88.17
2019-01-25T03:00:25.630Z,105.53
2019-01-25T03:02:55.053Z,87.13
2019-01-25T03:05:24.715Z,115.47
2019-01-25T03:07:53.187Z,91.87
2019-01-25T03:10:28.431Z,98.00
2019-01-25T03:12:52.796Z,94.67
2019-01-25T03:15:24.073Z,88.23
2019-01-25T03:17:52.580Z,97.43
2019-01-25T03:20:21.011Z,87.97
2019-01-25T03:22:49.494Z,79.23
2019-01-25T03:25:20.909Z,90.73
2019-01-25T03:27:49.366Z,89.17
2019-01-25T03:30:20.168Z,104.80
2019-01-25T03:32:48.647Z,112.53
2019-01-25T03:35:20.052Z,106.37
2019-01-25T03:37:48.441Z,90.37
2019-01-25T03:40:20.081Z,100.63
2019-01-25T03:42:48.902Z,108.67
2019-01-25T03:45:17.501Z,93.30
2019-01-25T03:47:45.828Z,87.80
2019-01-25T03:50:20.029Z,103.90
2019-01-25T03:52:48.307Z,91.37
2019-01-25T03:55:16.927Z,81.43
2019-01-25T03:57:45.253Z,103.63
2019-01-25T04:00:22.298Z,97.50
2019-01-25T04:02:50.701Z,86.13
2019-01-25T04:05:19.310Z,93.90
2019-01-25T04:07:47.792Z,97.23
2019-01-25T04:10:22.363Z,93.20
2019-01-25T04:12:50.742Z,85.03
2019-01-25T04:15:28.468Z,119.50
2019-01-25T04:17:56.790Z,105.53
2019-01-25T04:20:25.318Z,96.20
2019-01-25T04:22:53.591Z,98.83
2019-01-25T04:25:23.193Z,92.87
2019-01-25T04:27:51.906Z,107.07
2019-01-25T04:30:25.538Z,91.00
2019-01-25T04:32:53.985Z,83.63
2019-01-25T04:35:22.368Z,94.00
2019-01-25T04:37:50.823Z,84.20
2019-01-25T04:40:19.510Z,103.43
2019-01-25T04:42:47.883Z,94.50
2019-01-25T04:45:19.526Z,93.27
2019-01-25T04:47:47.957Z,88.13
2019-01-25T04:50:19.487Z,97.87
2019-01-25T04:52:48.029Z,89.10
2019-01-25T04:55:19.558Z,90.27
2019-01-25T04:57:49.038Z,105.80
2019-01-25T05:00:20.615Z,107.93
2019-01-25T05:03:00.359Z,90.83
2019-01-25T05:05:29.335Z,105.30
2019-01-25T05:08:16.423Z,98.40
2019-01-25T05:10:44.815Z,79.60
2019-01-25T05:13:13.176Z,92.33
2019-01-25T05:15:41.666Z,86.40
2019-01-25T05:18:10.811Z,53.80
2019-01-25T05:20:39.939Z,67.43
2019-01-25T05:23:08.504Z,72.17
2019-01-25T05:25:37.150Z,67.47
2019-01-25T05:28:14.804Z,80.43
2019-01-25T05:30:59.710Z,70.50
2019-01-25T05:33:28.135Z,86.70
2019-01-25T05:35:56.622Z,97.13
2019-01-25T05:38:25.130Z,91.40
2019-01-25T05:40:55.379Z,69.50
2019-01-25T05:43:25.638Z,100.17
2019-01-25T05:45:54.269Z,75.33
2019-01-25T05:48:26.595Z,111.53
2019-01-25T05:50:55.029Z,110.03
2019-01-25T05:53:23.346Z,77.40
2019-01-25T05:55:51.747Z,80.43
2019-01-25T05:58:20.140Z,100.87
2019-01-25T06:00:48.506Z,92.03
2019-01-25T06:03:16.934Z,73.80
2019-01-25T06:05:45.375Z,89.30
2019-01-25T06:08:32.515Z,89.13
2019-01-25T06:11:03.031Z,104.57
2019-01-25T06:13:31.454Z,73.70
2019-01-25T06:15:59.934Z,83.40
2019-01-25T06:18:28.278Z,80.27
2019-01-25T06:20:58.957Z,96.17
2019-01-25T06:23:27.307Z,87.13
2019-01-25T06:25:57.977Z,98.73
2019-01-25T06:28:26.320Z,89.97
2019-01-25T06:30:54.690Z,76.60
2019-01-25T06:33:23.185Z,77.60
2019-01-25T06:35:51.473Z,84.87
2019-01-25T06:38:19.798Z,74.43
2019-01-25T06:40:48.212Z,88.73
2019-01-25T06:43:16.784Z,76.30
2019-01-25T06:45:45.218Z,86.77
2019-01-25T06:48:13.673Z,96.33
2019-01-25T06:50:42.087Z,92.20
2019-01-25T06:53:10.528Z,86.70
2019-01-25T06:55:38.981Z,98.33
2019-01-25T06:58:08.949Z,86.30
2019-01-25T07:00:51.035Z,71.20
2019-01-25T07:03:19.343Z,70.53
2019-01-25T07:05:47.810Z,96.57
2019-01-25T07:08:17.767Z,84.93
2019-01-25T07:10:46.211Z,100.30
2019-01-25T07:13:14.623Z,84.20
2019-01-25T07:15:43.023Z,94.93
2019-01-25T07:18:11.592Z,68.33
2019-01-25T07:20:40.002Z,93.00
2019-01-25T07:23:08.439Z,97.70
2019-01-25T07:25:36.903Z,94.00
2019-01-25T07:28:05.347Z,77.40
2019-01-25T07:30:33.738Z,85.73
2019-01-25T07:33:02.330Z,94.47
2019-01-25T07:35:30.877Z,68.60
2019-01-25T07:37:59.211Z,79.27
2019-01-25T07:40:27.719Z,108.67
2019-01-25T07:42:56.111Z,102.23
2019-01-25T07:45:24.487Z,113.50
2019-01-25T07:47:52.980Z,91.47
2019-01-25T07:50:21.430Z,74.70
2019-01-25T07:52:49.810Z,85.17
2019-01-25T07:55:18.201Z,90.97
2019-01-25T07:57:46.570Z,82.10
2019-01-25T08:00:16.681Z,89.60
2019-01-25T08:02:45.299Z,89.77
2019-01-25T08:05:13.700Z,92.97
2019-01-25T08:07:42.095Z,82.63
2019-01-25T08:10:13.958Z,59.50
2019-01-25T08:12:42.387Z,109.23
2019-01-25T08:15:14.090Z,44.70
2019-01-25T08:17:42.651Z,38.60
2019-01-25T08:20:13.641Z,85.07
2019-01-25T08:22:42.017Z,86.47
2019-01-25T08:25:10.519Z,95.80
2019-01-25T08:27:38.985Z,94.80
2019-01-25T08:30:13.649Z,89.30
2019-01-25T08:32:42.051Z,91.40
2019-01-25T08:35:12.800Z,89.80
2019-01-25T08:37:41.245Z,103.80
2019-01-25T08:40:12.986Z,98.17
2019-01-25T08:42:41.423Z,72.93
2019-01-25T08:45:13.125Z,90.63
2019-01-25T08:47:41.534Z,93.17
2019-01-25T08:50:25.232Z,91.57
2019-01-25T08:52:53.770Z,88.23
2019-01-25T08:55:22.242Z,94.03
2019-01-25T08:57:50.606Z,80.27
2019-01-25T09:00:22.591Z,96.10
2019-01-25T09:02:50.985Z,86.70
2019-01-25T09:05:19.534Z,96.40
2019-01-25T09:07:47.879Z,87.33
2019-01-25T09:10:19.322Z,85.50
2019-01-25T09:12:47.864Z,99.33
2019-01-25T09:15:22.686Z,100.90
2019-01-25T09:17:51.610Z,85.13
2019-01-25T09:20:22.478Z,76.70
2019-01-25T09:22:50.851Z,45.43
2019-01-25T09:25:19.159Z,100.67
2019-01-25T09:27:48.229Z,79.90
2019-01-25T09:30:22.380Z,98.10
2019-01-25T09:32:50.828Z,88.73
2019-01-25T09:35:19.542Z,86.23
2019-01-25T09:37:48.375Z,70.93
2019-01-25T09:40:20.382Z,48.90
2019-01-25T09:42:48.726Z,61.47
2019-01-25T09:45:17.075Z,34.10
2019-01-25T09:47:45.529Z,86.60
2019-01-25T09:50:17.271Z,80.20
2019-01-25T09:52:45.682Z,94.93
2019-01-25T09:55:17.286Z,96.90
2019-01-25T09:57:45.651Z,127.37
2019-01-25T10:00:32.038Z,27.53
2019-01-25T10:03:00.438Z,40.97
2019-01-25T10:05:28.936Z,85.90
2019-01-25T10:07:57.292Z,58.77
2019-01-25T10:10:25.846Z,80.70
2019-01-25T10:12:54.193Z,83.20
2019-01-25T10:15:28.639Z,89.60
2019-01-25T10:17:57.131Z,73.30
2019-01-25T10:20:25.620Z,70.27
2019-01-25T10:22:53.921Z,76.23
2019-01-25T10:25:22.195Z,75.00
2019-01-25T10:27:50.684Z,93.10
2019-01-25T10:30:24.731Z,69.03
2019-01-25T10:32:53.151Z,68.77
2019-01-25T10:35:21.593Z,83.40
2019-01-25T10:37:50.181Z,78.23
2019-01-25T10:40:21.667Z,85.70
2019-01-25T10:42:53.497Z,65.87
2019-01-25T10:45:39.682Z,80.10
2019-01-25T10:48:09.709Z,89.73
2019-01-25T10:50:38.215Z,89.67
2019-01-25T10:53:08.746Z,83.77
2019-01-25T10:55:37.057Z,99.97
2019-01-25T10:58:06.219Z,89.53
2019-01-25T11:00:34.639Z,76.40
2019-01-25T11:03:03.011Z,64.00
2019-01-25T11:05:34.210Z,71.20
2019-01-25T11:08:02.763Z,89.73
2019-01-25T11:10:31.262Z,87.73
2019-01-25T11:13:00.995Z,61.93
2019-01-25T11:15:29.935Z,51.73
2019-01-25T11:17:58.279Z,74.97
2019-01-25T11:20:27.825Z,81.40
2019-01-25T11:22:56.214Z,73.97
2019-01-25T11:25:30.830Z,79.80
2019-01-25T11:27:59.263Z,87.83
2019-01-25T11:30:27.723Z,65.90
2019-01-25T11:32:56.160Z,64.00
2019-01-25T11:35:25.387Z,93.37
2019-01-25T11:37:53.923Z,87.27
2019-01-25T11:40:28.572Z,74.93
2019-01-25T11:42:57.667Z,81.57
2019-01-25T11:45:26.188Z,90.80
2019-01-25T11:47:55.298Z,70.23
2019-01-25T11:50:24.379Z,81.13
2019-01-25T11:52:52.782Z,93.90
2019-01-25T11:55:21.383Z,83.07
2019-01-25T11:57:50.028Z,50.20
2019-01-25T12:00:22.263Z,74.47
2019-01-25T12:02:50.947Z,62.00
2019-01-25T12:05:30.086Z,69.33
2019-01-25T12:07:59.047Z,91.67
2019-01-25T12:10:35.238Z,78.00
2019-01-25T12:13:04.684Z,85.73
2019-01-25T12:15:35.852Z,91.70
2019-01-25T12:18:06.340Z,85.73
2019-01-25T12:20:35.711Z,84.60
2019-01-25T12:23:04.066Z,89.00
2019-01-25T12:25:32.672Z,71.97
2019-01-25T12:28:05.312Z,83.67
2019-01-25T12:30:37.739Z,78.43
2019-01-25T12:33:03.996Z,80.23
2019-01-25T12:35:34.863Z,77.27
2019-01-25T12:38:03.157Z,80.43
2019-01-25T12:40:31.549Z,70.43
2019-01-25T12:42:59.995Z,74.33
2019-01-25T12:45:30.721Z,57.07
2019-01-25T12:47:59.187Z,77.33
2019-01-25T12:50:36.551Z,80.80
2019-01-25T12:53:07.682Z,68.57
2019-01-25T12:55:36.093Z,91.77
2019-01-25T12:58:05.376Z,83.83
2019-01-25T13:00:49.697Z,95.83
2019-01-25T13:03:18.929Z,37.87
2019-01-25T13:05:47.519Z,42.53
2019-01-25T13:08:15.958Z,103.27
2019-01-25T13:10:44.310Z,79.40
2019-01-25T13:13:12.712Z,54.40
2019-01-25T13:15:41.193Z,89.97
2019-01-25T13:18:09.773Z,139.43
2019-01-25T13:20:39.670Z,128.80
2019-01-25T13:23:08.578Z,115.43
2019-01-25T13:25:36.895Z,39.27
2019-01-25T13:28:05.436Z,113.23
2019-01-25T13:30:33.812Z,110.93
2019-01-25T13:33:02.388Z,113.83
2019-01-25T13:35:30.925Z,117.23
2019-01-25T13:37:59.793Z,125.10
2019-01-25T13:40:28.938Z,127.23
2019-01-25T13:42:57.452Z,101.83
2019-01-25T13:45:32.512Z,134.33
2019-01-25T13:48:01.049Z,89.70
2019-01-25T13:50:30.133Z,129.43
2019-01-25T13:52:58.414Z,147.87
2019-01-25T13:55:26.851Z,161.53
2019-01-25T13:57:55.237Z,122.30
2019-01-25T14:00:32.484Z,98.37
2019-01-25T14:03:00.923Z,81.87
2019-01-25T14:05:29.371Z,135.00
2019-01-25T14:07:57.813Z,140.97
2019-01-25T14:10:29.830Z,157.90
2019-01-25T14:12:58.399Z,112.40
2019-01-25T14:15:26.808Z,154.90
2019-01-25T14:17:55.157Z,101.10
2019-01-25T14:20:26.851Z,143.40
2019-01-25T14:22:55.332Z,130.33
2019-01-25T14:25:23.605Z,123.57
2019-01-25T14:27:52.118Z,126.70
2019-01-25T14:30:35.521Z,128.90
2019-01-25T14:33:04.950Z,149.53
2019-01-25T14:35:33.362Z,138.53
2019-01-25T14:38:01.702Z,135.00
2019-01-25T14:40:30.164Z,169.90
2019-01-25T14:42:58.461Z,129.37
2019-01-25T14:45:27.362Z,113.77
2019-01-25T14:47:55.872Z,116.33
2019-01-25T14:50:27.358Z,139.87
2019-01-25T14:52:55.835Z,132.07
2019-01-25T14:55:24.177Z,139.10
2019-01-25T14:57:52.533Z,124.67
2019-01-25T15:00:21.008Z,130.33
2019-01-25T15:02:49.431Z,138.77
2019-01-25T15:05:20.314Z,120.27
2019-01-25T15:07:48.618Z,132.90
2019-01-25T15:10:19.502Z,130.03
2019-01-25T15:12:48.758Z,133.60
2019-01-25T15:15:17.159Z,109.70
2019-01-25T15:17:45.431Z,102.23
2019-01-25T15:20:17.006Z,115.90
2019-01-25T15:22:45.332Z,95.33
2019-01-25T15:25:13.798Z,112.17
2019-01-25T15:27:42.281Z,101.57
2019-01-25T15:30:28.632Z,117.60
2019-01-25T15:32:57.012Z,97.10
2019-01-25T15:35:25.307Z,84.03
2019-01-25T15:37:53.612Z,81.87
2019-01-25T15:40:23.189Z,79.80
2019-01-25T15:42:51.501Z,67.77
2019-01-25T15:45:21.784Z,83.77
2019-01-25T15:47:50.416Z,72.40
2019-01-25T15:50:24.705Z,81.80
2019-01-25T15:52:53.293Z,47.97
2019-01-25T15:55:21.810Z,54.17
2019-01-25T15:57:50.281Z,54.93
2019-01-25T16:00:23.732Z,64.80
2019-01-25T16:02:52.282Z,66.60
2019-01-25T16:05:21.717Z,65.57
2019-01-25T16:07:50.191Z,68.90
2019-01-25T16:10:20.659Z,67.67
2019-01-25T16:12:49.182Z,58.40
2019-01-25T16:15:19.879Z,62.40
2019-01-25T16:17:48.192Z,61.20
2019-01-25T16:20:18.806Z,66.27
2019-01-25T16:22:49.392Z,69.47
2019-01-25T16:25:23.629Z,83.20
2019-01-25T16:27:51.955Z,52.17
2019-01-25T16:30:29.016Z,65.10
2019-01-25T16:32:58.279Z,47.50
2019-01-25T16:35:26.695Z,46.27
2019-01-25T16:37:55.317Z,59.30
2019-01-25T16:40:27.150Z,55.30
2019-01-25T16:42:55.752Z,55.20
2019-01-25T16:45:36.039Z,27.47
2019-01-25T16:48:04.712Z,37.57
2019-01-25T16:50:33.341Z,50.37
2019-01-25T16:53:01.964Z,52.97
2019-01-25T16:55:30.634Z,49.80
2019-01-25T16:57:59.232Z,41.53
2019-01-25T17:00:33.515Z,46.93
2019-01-25T17:03:04.367Z,35.83
2019-01-25T17:05:33.204Z,37.00
2019-01-25T17:08:01.854Z,19.40
2019-01-25T17:10:30.409Z,34.97
2019-01-25T17:13:03.535Z,30.30
2019-01-25T17:15:32.222Z,31.27
2019-01-25T17:18:00.648Z,30.10
2019-01-25T17:20:30.428Z,20.47
2019-01-25T17:22:58.839Z,25.17
2019-01-25T17:25:27.227Z,27.07
2019-01-25T17:27:55.722Z,24.90
2019-01-25T17:30:32.170Z,16.20
2019-01-25T17:33:01.837Z,22.00
2019-01-25T17:35:31.608Z,12.80
2019-01-25T17:38:00.040Z,13.20
2019-01-25T17:40:31.621Z,11.90
2019-01-25T17:43:00.044Z,22.47
2019-01-25T17:45:28.486Z,24.27
2019-01-25T17:47:56.876Z,15.37
2019-01-25T17:50:25.186Z,27.33
2019-01-25T17:52:53.633Z,22.50
2019-01-25T17:55:22.009Z,29.07
2019-01-25T17:57:50.491Z,21.77
2019-01-25T18:00:26.080Z,26.33
2019-01-25T18:02:54.386Z,25.17
2019-01-25T18:05:22.966Z,24.07
2019-01-25T18:07:51.263Z,26.57
2019-01-25T18:10:22.555Z,27.60
2019-01-25T18:12:51.072Z,43.83
2019-01-25T18:15:20.945Z,43.70
2019-01-25T18:17:51.384Z,34.90
2019-01-25T18:20:22.848Z,51.57
2019-01-25T18:22:51.608Z,15.63
2019-01-25T18:25:40.110Z,37.47
2019-01-25T18:28:18.856Z,38.50
2019-01-25T18:31:02.104Z,35.00
2019-01-25T18:33:31.324Z,62.70
2019-01-25T18:36:00.324Z,51.50
2019-01-25T18:38:29.223Z,35.17
2019-01-25T18:41:20.009Z,44.77
2019-01-25T18:43:48.764Z,34.67
2019-01-25T18:46:17.642Z,25.57
2019-01-25T18:48:56.526Z,47.40
2019-01-25T18:51:26.232Z,48.83
2019-01-25T18:53:55.111Z,22.73
2019-01-25T18:56:24.189Z,35.97
2019-01-25T18:58:58.041Z,46.27
2019-01-25T19:01:26.896Z,25.63
2019-01-25T19:03:56.864Z,54.70
2019-01-25T19:06:25.197Z,53.27
2019-01-25T19:08:54.066Z,32.57
2019-01-25T19:11:23.247Z,37.07
2019-01-25T19:13:51.591Z,58.70
2019-01-25T19:16:19.996Z,40.63
2019-01-25T19:18:48.296Z,19.40
2019-01-25T19:21:16.814Z,41.50
2019-01-25T19:23:45.149Z,26.03
2019-01-25T19:26:13.688Z,20.23
2019-01-25T19:28:41.992Z,35.87
2019-01-25T19:31:10.379Z,65.47
2019-01-25T19:33:38.704Z,40.50
2019-01-25T19:36:07.027Z,54.23
2019-01-25T19:38:35.386Z,55.93
2019-01-25T19:41:03.756Z,48.03
2019-01-25T19:43:32.153Z,63.10
2019-01-25T19:46:00.934Z,58.07
2019-01-25T19:48:29.230Z,44.70
2019-01-25T19:50:57.505Z,55.57
2019-01-25T19:53:25.825Z,19.90
2019-01-25T19:55:54.151Z,19.77
2019-01-25T19:58:22.512Z,26.53
2019-01-25T20:00:50.923Z,34.90
2019-01-25T20:03:19.376Z,25.97
2019-01-25T20:05:47.671Z,44.50
2019-01-25T20:08:16.084Z,32.27
2019-01-25T20:10:44.713Z,59.97
2019-01-25T20:13:13.087Z,19.97
2019-01-25T20:15:41.460Z,37.80
2019-01-25T20:18:09.978Z,24.80
2019-01-25T20:20:40.858Z,30.20
2019-01-25T20:23:09.225Z,33.80
2019-01-25T20:25:37.604Z,37.20
2019-01-25T20:28:08.428Z,24.40
2019-01-25T20:30:37.001Z,21.63
2019-01-25T20:33:05.914Z,33.63
2019-01-25T20:35:36.783Z,34.20
2019-01-25T20:38:05.573Z,28.40
2019-01-25T20:40:33.964Z,27.17
2019-01-25T20:43:02.841Z,24.93
2019-01-25T20:45:37.130Z,30.73
2019-01-25T20:48:05.735Z,15.30
2019-01-25T20:50:36.908Z,26.30
2019-01-25T20:53:07.472Z,17.40
2019-01-25T20:55:35.895Z,9.90
2019-01-25T20:58:04.524Z,19.20
2019-01-25T21:00:36.027Z,16.27
2019-01-25T21:03:05.562Z,21.43
2019-01-25T21:05:34.018Z,13.13
2019-01-25T21:08:02.345Z,26.37
2019-01-25T21:10:30.723Z,20.23
2019-01-25T21:12:59.031Z,19.50
2019-01-25T21:15:34.995Z,3.47
2019-01-25T21:17:58.921Z,16.93
2019-01-25T21:20:32.816Z,7.90
2019-01-25T21:23:01.240Z,11.57
2019-01-25T21:25:29.739Z,6.63
2019-01-25T21:27:58.028Z,12.40
2019-01-25T21:30:32.097Z,6.30
2019-01-25T21:33:00.361Z,17.03
2019-01-25T21:35:28.626Z,14.77
2019-01-25T21:37:57.022Z,7.70
2019-01-25T21:40:27.934Z,10.63
2019-01-25T21:42:56.207Z,12.03
2019-01-25T21:45:27.005Z,15.53
2019-01-25T21:47:55.334Z,9.70
2019-01-25T21:50:29.331Z,8.70
2019-01-25T21:52:57.618Z,8.00
2019-01-25T21:55:26.000Z,15.80
2019-01-25T21:57:54.431Z,9.60
2019-01-25T22:00:25.201Z,14.40
2019-01-25T22:02:53.540Z,11.57
2019-01-25T22:05:21.922Z,9.03
2019-01-25T22:07:50.196Z,4.40
2019-01-25T22:10:24.896Z,13.00
2019-01-25T22:12:53.299Z,7.90
2019-01-25T22:15:21.672Z,7.30
2019-01-25T22:17:50.062Z,8.03
2019-01-25T22:20:21.074Z,10.60
2019-01-25T22:22:49.410Z,12.97
2019-01-25T22:25:17.712Z,5.07
2019-01-25T22:27:48.528Z,11.90
2019-01-25T22:30:20.191Z,10.23
2019-01-25T22:32:48.511Z,8.07
2019-01-25T22:35:16.898Z,6.20
2019-01-25T22:37:45.233Z,4.30
2019-01-25T22:40:22.270Z,18.23
2019-01-25T22:42:50.703Z,13.97
2019-01-25T22:45:24.601Z,11.90
2019-01-25T22:47:52.968Z,19.27
2019-01-25T22:50:32.479Z,16.43
2019-01-25T22:53:00.776Z,9.83
2019-01-25T22:55:29.192Z,11.70
2019-01-25T22:57:57.471Z,5.90
2019-01-25T23:00:51.451Z,11.57
2019-01-25T23:03:42.154Z,6.70
2019-01-25T23:06:31.634Z,9.07
2019-01-25T23:09:05.026Z,4.77
2019-01-25T23:11:33.337Z,7.10
2019-01-25T23:14:01.716Z,13.20
2019-01-25T23:16:30.087Z,3.97
2019-01-25T23:18:58.396Z,16.27
2019-01-25T23:21:26.914Z,16.83
2019-01-25T23:23:55.242Z,13.63
2019-01-25T23:26:23.650Z,24.00
2019-01-25T23:28:51.928Z,24.43
2019-01-25T23:31:20.329Z,16.97
2019-01-25T23:33:48.615Z,25.40
2019-01-25T23:36:17.094Z,21.57
2019-01-25T23:38:45.354Z,20.43
2019-01-25T23:41:13.705Z,16.07
2019-01-25T23:43:42.694Z,14.13
2019-01-25T23:46:13.897Z,16.80
2019-01-25T23:48:43.433Z,18.63
2019-01-25T23:51:12.516Z,19.53
2019-01-25T23:53:40.977Z,23.40
2019-01-25T23:56:09.561Z,10.50
2019-01-25T23:58:38.009Z,14.53
